Time;durP1;ratioP1;P1;durP2;ratioP2;P2;SDS_P1;SDS_P2;PMS_P1;PMS_P2;Temp;Humidity;BMP_temperature;BMP_pressure;BME280_temperature;BME280_humidity;BME280_pressure;Samples;Min_cycle;Max_cycle;Signal;HPM_P1;HPM_P2
2021/12/30 00:00:18;;;;;;;14.13;3.17;;;;;;;20.91;47.71;99441.47;4433321;32;20037;-71
2021/12/30 00:02:44;;;;;;;14.40;2.78;;;;;;;20.82;48.40;99448.34;4430464;32;20077;-71
2021/12/30 00:05:11;;;;;;;11.70;2.72;;;;;;;20.61;48.75;99449.38;4433487;32;20097;-71
2021/12/30 00:07:37;;;;;;;15.70;3.25;;;;;;;20.91;48.08;99447.97;4428280;32;20033;-71
2021/12/30 00:10:04;;;;;;;14.27;3.55;;;;;;;20.85;48.28;99444.41;4429711;32;20069;-71
2021/12/30 00:12:31;;;;;;;14.23;3.15;;;;;;;21.04;47.91;99445.19;4430890;32;20053;-71
2021/12/30 00:14:57;;;;;;;17.35;2.95;;;;;;;21.23;47.35;99445.19;4428402;32;20102;-72
2021/12/30 00:17:23;;;;;;;14.48;3.53;;;;;;;21.44;46.81;99444.06;4433270;32;20120;-71
2021/12/30 00:19:49;;;;;;;16.02;2.83;;;;;;;21.30;47.13;99444.56;4430953;32;20049;-71
2021/12/30 00:22:15;;;;;;;15.57;2.47;;;;;;;21.32;47.14;99442.69;4427999;32;20088;-71
2021/12/30 00:24:40;;;;;;;12.32;2.45;;;;;;;21.34;47.40;99447.88;4428928;32;20125;-71
2021/12/30 00:27:06;;;;;;;11.38;2.28;;;;;;;21.38;47.19;99448.31;4428599;32;20109;-71
2021/12/30 00:29:33;;;;;;;15.45;3.40;;;;;;;21.52;46.86;99436.41;4427330;32;20539;-71
2021/12/30 00:31:59;;;;;;;15.52;3.03;;;;;;;21.26;47.72;99438.41;4427942;32;20093;-71
2021/12/30 00:34:25;;;;;;;13.73;2.03;;;;;;;21.46;47.53;99446.38;4428184;32;21578;-71
2021/12/30 00:36:51;;;;;;;11.95;2.72;;;;;;;21.52;47.38;99439.28;4428865;32;20121;-71
2021/12/30 00:39:17;;;;;;;8.73;2.20;;;;;;;21.38;47.87;99466.28;4428429;32;20376;-71
2021/12/30 00:41:43;;;;;;;9.82;2.25;;;;;;;21.64;47.05;99466.38;4432501;32;20085;-71
2021/12/30 00:44:09;;;;;;;14.75;2.45;;;;;;;21.85;46.84;99466.59;4420985;32;20064;-71
2021/12/30 00:46:35;;;;;;;15.07;2.20;;;;;;;21.91;46.71;99470.16;4419832;32;20041;-71
2021/12/30 00:49:00;;;;;;;9.40;2.30;;;;;;;22.07;46.49;99459.69;4419815;32;20038;-71
2021/12/30 00:51:26;;;;;;;9.88;2.12;;;;;;;22.12;46.39;99462.44;4417535;32;20131;-71
2021/12/30 00:53:52;;;;;;;7.25;1.77;;;;;;;21.76;47.42;99460.50;4420630;32;20088;-71
2021/12/30 00:56:18;;;;;;;15.80;2.22;;;;;;;21.89;47.42;99469.13;4416745;32;20095;-70
2021/12/30 00:58:44;;;;;;;9.43;2.30;;;;;;;21.96;47.29;99465.63;4418639;32;20071;-70
2021/12/30 01:01:09;;;;;;;4.22;1.45;;;;;;;21.96;47.30;99459.91;4416874;32;20105;-71
2021/12/30 01:03:35;;;;;;;9.57;2.28;;;;;;;21.85;47.74;99460.87;4420374;32;20034;-71
2021/12/30 01:06:02;;;;;;;6.95;1.60;;;;;;;22.14;46.92;99464.75;4421472;32;20085;-70
2021/12/30 01:08:28;;;;;;;5.87;1.62;;;;;;;22.48;46.47;99460.72;4421625;32;20133;-71
2021/12/30 01:10:54;;;;;;;6.68;1.90;;;;;;;22.25;46.85;99459.63;4416555;32;20819;-70
2021/12/30 01:13:25;;;;;;;6.78;1.40;;;;;;;22.05;47.60;99456.59;4418203;32;20351;-70
2021/12/30 01:16:04;;;;;;;11.00;1.70;;;;;;;22.12;47.67;99455.97;4422815;32;20080;-70
2021/12/30 01:21:13;;;;;;;6.53;1.62;;;;;;;;;;3983003;32;15022189;-71
2021/12/30 01:23:41;;;;;;;5.57;1.70;;;;;;;;;;4437957;32;20108;-71
2021/12/30 01:26:08;;;;;;;4.03;1.15;;;;;;;21.91;48.20;99466.50;4433852;32;20069;-71
2021/12/30 01:28:34;;;;;;;6.28;1.42;;;;;;;22.30;47.85;99466.56;4431647;32;20449;-71
2021/12/30 01:31:01;;;;;;;6.55;1.33;;;;;;;21.88;48.83;99465.50;4434593;32;21154;-71
2021/12/30 01:33:28;;;;;;;5.97;1.23;;;;;;;21.98;48.68;99465.84;4435752;32;20064;-71
2021/12/30 01:35:54;;;;;;;5.90;1.45;;;;;;;22.04;48.37;99452.97;4432748;32;20063;-70
2021/12/30 01:38:20;;;;;;;3.80;0.98;;;;;;;21.93;48.55;99453.16;4430692;32;20037;-71
2021/12/30 01:40:48;;;;;;;5.60;1.20;;;;;;;21.59;49.43;99464.38;4434455;32;20075;-70
2021/12/30 01:43:14;;;;;;;4.75;0.75;;;;;;;22.07;48.55;99469.06;4434693;32;20385;-70
2021/12/30 01:45:42;;;;;;;4.40;1.25;;;;;;;22.06;48.64;99470.38;4435576;32;20281;-70
2021/12/30 01:48:09;;;;;;;6.07;1.08;;;;;;;22.00;49.06;99477.53;4432570;32;20064;-69
2021/12/30 01:50:35;;;;;;;5.78;1.20;;;;;;;21.74;49.12;99471.72;4435674;32;20029;-69
2021/12/30 01:53:03;;;;;;;8.93;1.35;;;;;;;21.79;49.49;99468.00;4432403;32;20094;-69
2021/12/30 01:55:32;;;;;;;7.97;1.10;;;;;;;22.03;49.25;99467.84;4434737;32;20381;-69
2021/12/30 01:58:00;;;;;;;6.00;1.15;;;;;;;21.82;49.64;99461.97;4433988;32;20077;-69
2021/12/30 02:00:29;;;;;;;7.47;1.50;;;;;;;21.21;51.46;99459.28;4430710;32;20064;-69
2021/12/30 02:02:55;;;;;;;4.15;1.00;;;;;;;21.47;51.10;99456.50;4437081;32;20041;-69
2021/12/30 02:05:21;;;;;;;4.22;0.60;;;;;;;21.13;51.99;99458.34;4435323;32;20587;-69
2021/12/30 02:07:47;;;;;;;3.47;0.90;;;;;;;21.20;51.79;99455.62;4434858;32;20046;-69
2021/12/30 02:10:14;;;;;;;6.40;0.77;;;;;;;21.07;52.25;99457.63;4436298;32;20495;-68
2021/12/30 02:12:42;;;;;;;2.37;0.57;;;;;;;21.06;52.61;99439.72;4434427;32;20344;-68
2021/12/30 02:15:11;;;;;;;1.23;0.55;;;;;;;21.06;52.25;99448.31;4435255;32;20488;-69
2021/12/30 02:17:39;;;;;;;2.90;0.50;;;;;;;21.32;51.92;99436.19;4435939;32;20474;-69
2021/12/30 02:20:10;;;;;;;1.30;0.50;;;;;;;21.02;52.72;99453.53;4431129;32;20112;-68
2021/12/30 02:22:35;;;;;;;2.30;0.57;;;;;;;21.05;52.41;99451.72;4432421;32;20470;-68
2021/12/30 02:25:03;;;;;;;4.45;0.95;;;;;;;21.07;52.24;99454.78;4431889;32;20441;-68
2021/12/30 02:27:29;;;;;;;0.80;0.30;;;;;;;21.15;52.33;99447.13;4432245;32;20522;-68
2021/12/30 02:29:55;;;;;;;4.28;0.50;;;;;;;21.02;52.73;99442.09;4433444;32;20071;-68
2021/12/30 02:32:22;;;;;;;1.62;0.40;;;;;;;20.98;52.78;99443.72;4424364;32;20057;-68
2021/12/30 02:34:49;;;;;;;1.23;0.47;;;;;;;21.24;52.53;99435.28;4424359;32;20093;-68
2021/12/30 02:37:17;;;;;;;1.55;0.40;;;;;;;21.39;52.25;99424.13;4420176;32;20042;-69
2021/12/30 02:39:47;;;;;;;1.35;0.17;;;;;;;21.40;51.91;99431.41;4423739;32;20041;-68
2021/12/30 02:42:14;;;;;;;2.25;0.30;;;;;;;20.90;53.33;99434.19;4422413;32;20498;-68
2021/12/30 02:44:39;;;;;;;1.55;0.40;;;;;;;21.10;52.79;99425.09;4422127;32;20045;-68
2021/12/30 02:47:05;;;;;;;1.23;0.43;;;;;;;21.27;52.33;99429.25;4421187;32;20064;-68
2021/12/30 02:49:31;;;;;;;2.17;0.43;;;;;;;20.90;53.17;99437.81;4426482;32;20065;-69
2021/12/30 02:51:56;;;;;;;1.25;0.70;;;;;;;20.98;53.15;99430.19;4425014;32;20075;-69
2021/12/30 02:54:22;;;;;;;1.77;0.60;;;;;;;21.04;53.18;99439.47;4422083;32;20446;-69
2021/12/30 02:56:48;;;;;;;1.92;0.57;;;;;;;20.83;53.39;99446.25;4423926;32;20099;-69
2021/12/30 02:59:18;;;;;;;2.25;0.98;;;;;;;20.89;53.42;99442.00;4422535;32;20087;-69
2021/12/30 03:01:44;;;;;;;1.23;0.30;;;;;;;20.98;53.64;99435.91;4414924;32;20466;-69
2021/12/30 03:04:12;;;;;;;0.98;0.25;;;;;;;20.85;53.95;99432.19;4423379;32;20096;-70
2021/12/30 03:06:38;;;;;;;0.80;0.20;;;;;;;20.72;54.19;99421.44;4423318;32;20418;-70
2021/12/30 03:09:04;;;;;;;2.17;0.50;;;;;;;20.51;54.82;99428.22;4422042;32;20038;-70
2021/12/30 03:11:30;;;;;;;1.02;0.30;;;;;;;20.65;54.44;99424.91;4422871;32;20464;-69
2021/12/30 03:13:57;;;;;;;0.40;0.20;;;;;;;20.76;54.23;99421.91;4420467;32;20026;-69
2021/12/30 03:16:28;;;;;;;0.52;0.20;;;;;;;20.62;54.43;99428.84;4422589;32;20077;-70
2021/12/30 03:18:53;;;;;;;3.00;0.37;;;;;;;21.18;53.56;99429.66;4420583;32;20100;-70
2021/12/30 03:21:21;;;;;;;0.55;0.20;;;;;;;20.59;54.92;99427.06;4422398;32;20064;-70
2021/12/30 03:23:49;;;;;;;2.25;0.20;;;;;;;20.62;55.38;99408.06;4425051;32;20038;-70
2021/12/30 03:26:16;;;;;;;0.25;0.20;;;;;;;21.07;54.13;99420.44;4424720;32;20142;-70
2021/12/30 03:28:44;;;;;;;1.42;0.20;;;;;;;20.74;55.05;99409.47;4419932;32;20045;-70
2021/12/30 03:31:12;;;;;;;1.12;0.20;;;;;;;20.71;55.10;99411.31;4422413;32;20674;-70
2021/12/30 03:33:39;;;;;;;0.30;0.17;;;;;;;20.98;54.68;99410.19;4424464;32;20073;-69
2021/12/30 03:36:07;;;;;;;0.30;0.10;;;;;;;20.80;54.72;99408.06;4421423;32;20081;-69
2021/12/30 03:38:41;;;;;;;0.32;0.10;;;;;;;20.38;56.16;99408.91;4424039;32;20034;-67
2021/12/30 03:41:10;;;;;;;0.40;0.10;;;;;;;20.76;55.18;99393.31;4421002;32;20045;-67
2021/12/30 03:43:36;;;;;;;0.30;0.10;;;;;;;20.65;55.49;99404.91;4423445;32;20038;-68
2021/12/30 03:46:03;;;;;;;0.00;0.00;;;;;;;20.50;55.93;99413.16;4421911;32;20099;-68
2021/12/30 03:48:33;;;;;;;2.83;0.30;;;;;;;20.38;56.05;99416.69;4421497;32;20042;-68
2021/12/30 03:51:05;;;;;;;0.10;0.10;;;;;;;20.82;54.87;99408.31;4423436;32;20045;-68
2021/12/30 03:53:37;;;;;;;0.20;0.00;;;;;;;21.01;54.44;99414.81;4422750;32;20026;-68
2021/12/30 03:56:05;;;;;;;0.52;0.00;;;;;;;21.04;54.30;99404.38;4422940;32;20034;-67
2021/12/30 03:58:31;;;;;;;0.57;0.10;;;;;;;21.03;54.46;99423.66;4423677;32;20364;-67
2021/12/30 04:00:57;;;;;;;0.40;0.10;;;;;;;20.93;54.66;99419.56;4416934;32;20427;-67
2021/12/30 04:03:22;;;;;;;0.15;0.10;;;;;;;21.07;54.17;99418.38;4422104;32;20450;-67
2021/12/30 04:05:48;;;;;;;0.10;0.08;;;;;;;20.65;55.51;99415.56;4423237;32;20415;-67
2021/12/30 04:08:14;;;;;;;0.05;0.00;;;;;;;20.95;54.49;99427.66;4422433;32;20046;-67
2021/12/30 04:10:39;;;;;;;0.37;0.00;;;;;;;21.07;54.46;99415.50;4418771;32;20402;-68
2021/12/30 04:13:06;;;;;;;0.50;0.10;;;;;;;20.83;54.90;99412.72;4423987;32;20042;-68
2021/12/30 04:15:32;;;;;;;0.10;0.10;;;;;;;20.84;54.81;99397.13;4421079;32;20093;-69
2021/12/30 04:18:05;;;;;;;0.28;0.08;;;;;;;21.17;54.13;99402.34;4420254;32;20049;-69
2021/12/30 04:20:30;;;;;;;0.00;0.00;;;;;;;20.83;54.82;99415.56;4423881;32;20095;-69
2021/12/30 04:22:56;;;;;;;0.00;0.00;;;;;;;20.79;54.84;99400.03;4421387;32;20081;-69
2021/12/30 04:25:23;;;;;;;0.50;0.10;;;;;;;20.87;54.69;99404.59;4421655;32;20122;-69
2021/12/30 04:27:49;;;;;;;0.15;0.10;;;;;;;20.71;55.36;99397.00;4419716;32;20450;-69
2021/12/30 04:30:16;;;;;;;0.60;0.00;;;;;;;20.31;56.20;99398.06;4421723;32;20080;-69
2021/12/30 04:32:43;;;;;;;0.00;0.00;;;;;;;20.75;55.30;99391.00;4422330;32;20038;-69
2021/12/30 04:35:11;;;;;;;0.10;0.10;;;;;;;20.66;55.66;99395.03;4422943;32;20270;-69
2021/12/30 04:37:37;;;;;;;0.00;0.00;;;;;;;20.55;55.57;99392.31;4419457;32;20156;-69
2021/12/30 04:40:05;;;;;;;0.30;0.10;;;;;;;21.08;54.47;99396.28;4421925;32;20101;-69
2021/12/30 04:42:30;;;;;;;0.20;0.10;;;;;;;20.72;55.74;99392.88;4421655;32;20049;-69
2021/12/30 04:44:56;;;;;;;0.55;0.28;;;;;;;20.52;56.05;99392.63;4420256;32;20446;-69
2021/12/30 04:47:22;;;;;;;0.43;0.20;;;;;;;20.78;55.34;99381.34;4423322;32;20111;-69
2021/12/30 04:49:49;;;;;;;0.55;0.20;;;;;;;21.00;54.73;99403.91;4415898;32;20482;-69
2021/12/30 04:52:15;;;;;;;0.32;0.10;;;;;;;20.71;55.48;99410.56;4416993;32;20034;-69
2021/12/30 04:54:41;;;;;;;1.87;0.28;;;;;;;20.76;55.41;99410.47;4423439;32;20430;-67
2021/12/30 04:57:07;;;;;;;1.10;0.20;;;;;;;20.57;55.64;99403.97;4418604;32;20322;-67
2021/12/30 04:59:33;;;;;;;0.43;0.28;;;;;;;20.61;55.59;99404.44;4422754;32;20033;-67
2021/12/30 05:01:58;;;;;;;1.48;0.20;;;;;;;20.90;54.76;99417.03;4423620;32;20124;-67
2021/12/30 05:04:25;;;;;;;0.15;0.08;;;;;;;20.70;55.26;99420.44;4421786;32;20054;-67
2021/12/30 05:06:51;;;;;;;0.10;0.00;;;;;;;20.68;55.55;99425.94;4417777;32;20102;-67
2021/12/30 05:09:18;;;;;;;0.47;0.10;;;;;;;20.49;56.04;99442.28;4421697;32;20085;-67
2021/12/30 05:11:44;;;;;;;0.65;0.20;;;;;;;20.65;55.51;99444.91;4419643;32;20097;-67
2021/12/30 05:14:11;;;;;;;1.55;0.00;;;;;;;20.67;55.54;99448.00;4421125;32;20085;-67
2021/12/30 05:16:38;;;;;;;0.00;0.00;;;;;;;20.98;55.03;99433.06;4416582;32;20080;-67
2021/12/30 05:19:05;;;;;;;0.25;0.10;;;;;;;20.68;55.54;99429.53;4417851;32;20115;-67
2021/12/30 05:21:31;;;;;;;0.10;0.00;;;;;;;20.90;55.14;99434.97;4423788;32;20093;-67
2021/12/30 05:23:57;;;;;;;0.73;0.10;;;;;;;20.68;55.42;99438.13;4420104;32;20099;-67
2021/12/30 05:26:27;;;;;;;1.25;0.20;;;;;;;20.85;54.92;99432.19;4421531;32;20134;-67
2021/12/30 05:28:54;;;;;;;0.00;0.00;;;;;;;20.81;55.05;99426.78;4419306;32;20037;-67
2021/12/30 05:31:20;;;;;;;0.43;0.10;;;;;;;20.86;54.88;99436.59;4419521;32;20033;-67
2021/12/30 05:33:46;;;;;;;0.47;0.10;;;;;;;20.82;54.98;99439.75;4420877;32;20458;-67
2021/12/30 05:36:12;;;;;;;0.10;0.10;;;;;;;21.10;54.20;99454.47;4422677;32;20064;-67
2021/12/30 05:38:38;;;;;;;0.10;0.10;;;;;;;21.21;53.90;99445.75;4423925;32;20410;-67
2021/12/30 05:41:03;;;;;;;2.35;0.40;;;;;;;20.80;54.88;99433.81;4422061;32;20046;-68
2021/12/30 05:43:29;;;;;;;0.70;0.20;;;;;;;21.02;54.30;99447.81;4421449;32;20042;-68
2021/12/30 05:45:55;;;;;;;0.22;0.10;;;;;;;20.93;54.47;99439.59;4419307;32;20057;-68
2021/12/30 05:48:21;;;;;;;0.22;0.20;;;;;;;21.00;54.46;99444.75;4424021;32;20124;-68
2021/12/30 05:50:47;;;;;;;0.10;0.10;;;;;;;20.54;55.41;99435.72;4419812;32;20065;-68
2021/12/30 05:53:13;;;;;;;0.68;0.25;;;;;;;21.12;54.08;99442.50;4422575;32;20210;-68
2021/12/30 05:55:39;;;;;;;0.30;0.20;;;;;;;21.01;54.18;99429.13;4423235;32;20081;-68
2021/12/30 05:58:04;;;;;;;0.40;0.10;;;;;;;20.77;54.66;99434.12;4419983;32;20499;-68
2021/12/30 06:00:31;;;;;;;1.77;0.30;;;;;;;20.94;53.83;99429.75;4421933;32;20129;-67
2021/12/30 06:03:00;;;;;;;0.40;0.20;;;;;;;21.08;53.88;99422.03;4424333;32;20554;-67
2021/12/30 06:05:26;;;;;;;1.05;0.40;;;;;;;21.27;53.38;99434.22;4418950;32;20144;-67
2021/12/30 06:07:51;;;;;;;0.45;0.40;;;;;;;21.22;53.24;99432.97;4423109;32;20103;-67
2021/12/30 06:10:18;;;;;;;0.47;0.20;;;;;;;21.04;53.60;99432.97;4421637;32;20073;-67
2021/12/30 06:12:44;;;;;;;0.30;0.20;;;;;;;21.08;53.65;99431.34;4425524;32;20111;-67
2021/12/30 06:15:11;;;;;;;0.32;0.20;;;;;;;20.91;54.10;99422.22;4420201;32;20089;-67
2021/12/30 06:17:38;;;;;;;0.25;0.20;;;;;;;21.32;53.32;99436.97;4423731;32;20390;-67
2021/12/30 06:20:06;;;;;;;0.30;0.20;;;;;;;21.58;52.65;99439.16;4421696;32;20428;-67
2021/12/30 06:22:32;;;;;;;0.30;0.20;;;;;;;20.93;54.30;99444.56;4425531;32;20664;-67
2021/12/30 06:24:58;;;;;;;0.17;0.17;;;;;;;21.04;53.79;99444.41;4423804;32;20093;-67
2021/12/30 06:27:23;;;;;;;0.50;0.20;;;;;;;20.64;54.90;99454.03;4423924;32;20045;-67
2021/12/30 06:29:50;;;;;;;0.20;0.20;;;;;;;20.79;54.52;99451.50;4420962;32;20451;-67
2021/12/30 06:32:16;;;;;;;0.35;0.10;;;;;;;21.11;53.60;99470.31;4423660;32;20035;-67
2021/12/30 06:34:42;;;;;;;0.85;0.40;;;;;;;20.94;53.92;99452.63;4425629;32;20117;-67
2021/12/30 06:37:08;;;;;;;0.52;0.15;;;;;;;21.10;53.51;99457.34;4423294;32;20096;-67
2021/12/30 06:39:34;;;;;;;0.10;0.10;;;;;;;21.17;53.33;99493.91;4422129;32;20083;-67
2021/12/30 06:41:59;;;;;;;0.37;0.25;;;;;;;21.25;53.13;99471.94;4425072;32;20037;-67
2021/12/30 06:44:25;;;;;;;0.40;0.30;;;;;;;20.80;55.02;99485.28;4423176;32;20083;-67
2021/12/30 06:46:56;;;;;;;1.73;0.17;;;;;;;20.68;55.29;99463.84;4422178;32;20046;-67
2021/12/30 06:49:23;;;;;;;0.20;0.20;;;;;;;20.73;55.58;99463.00;4421690;32;20073;-67
2021/12/30 06:51:49;;;;;;;0.60;0.30;;;;;;;20.59;55.97;99472.03;4421759;32;20037;-67
2021/12/30 06:54:15;;;;;;;0.90;0.50;;;;;;;20.60;55.95;99487.88;4422147;32;20101;-67
2021/12/30 06:56:41;;;;;;;3.28;0.40;;;;;;;20.75;55.39;99480.41;4424748;32;20037;-67
2021/12/30 06:59:07;;;;;;;0.20;0.20;;;;;;;20.88;55.22;99482.56;4423086;32;20073;-67
2021/12/30 07:01:33;;;;;;;1.10;0.20;;;;;;;20.49;56.04;99462.28;4420114;32;20324;-67
2021/12/30 07:03:59;;;;;;;0.68;0.20;;;;;;;20.60;55.91;99487.88;4423238;32;20105;-67
2021/12/30 07:06:25;;;;;;;1.20;0.30;;;;;;;20.56;55.62;99501.69;4422324;32;20409;-67
2021/12/30 07:08:51;;;;;;;1.95;0.40;;;;;;;20.49;55.61;99499.44;4421180;32;20041;-67
2021/12/30 07:11:17;;;;;;;0.25;0.20;;;;;;;20.79;54.82;99495.16;4422486;32;20060;-67
2021/12/30 07:13:43;;;;;;;0.40;0.22;;;;;;;20.66;55.05;99509.38;4425208;32;20084;-67
2021/12/30 07:16:09;;;;;;;0.62;0.20;;;;;;;20.37;55.74;99495.91;4424082;32;21175;-67
2021/12/30 07:18:34;;;;;;;0.80;0.10;;;;;;;20.49;55.54;99502.31;4422286;32;20081;-67
2021/12/30 07:21:00;;;;;;;0.20;0.10;;;;;;;20.82;54.76;99482.66;4421804;32;20192;-67
2021/12/30 07:23:26;;;;;;;0.70;0.10;;;;;;;20.77;54.57;99497.03;4422491;32;20046;-67
2021/12/30 07:25:52;;;;;;;0.43;0.10;;;;;;;20.71;54.54;99502.03;4424132;32;20067;-67
2021/12/30 07:28:18;;;;;;;0.52;0.10;;;;;;;21.06;53.55;99502.66;4421884;32;20437;-68
2021/12/30 07:30:44;;;;;;;0.03;0.00;;;;;;;20.61;54.27;99486.53;4422225;32;20152;-67
2021/12/30 07:33:10;;;;;;;0.25;0.10;;;;;;;21.08;53.24;99496.38;4425041;32;20042;-67
2021/12/30 07:35:36;;;;;;;0.20;0.10;;;;;;;21.09;53.32;99498.72;4418930;32;20076;-67
2021/12/30 07:38:04;;;;;;;0.62;0.10;;;;;;;21.27;52.68;99497.91;4416062;32;20077;-67
2021/12/30 07:40:30;;;;;;;0.75;0.10;;;;;;;20.97;53.15;99519.41;4421018;32;20069;-67
2021/12/30 07:42:56;;;;;;;0.40;0.10;;;;;;;20.96;53.45;99518.63;4422194;32;20038;-67
2021/12/30 07:45:22;;;;;;;4.22;0.10;;;;;;;21.30;52.33;99528.31;4426485;32;20094;-67
2021/12/30 07:47:49;;;;;;;2.25;0.13;;;;;;;21.48;51.95;99533.25;4420709;32;20103;-67
2021/12/30 07:50:14;;;;;;;0.50;0.13;;;;;;;21.25;52.00;99536.97;4421191;32;20041;-67
2021/12/30 07:52:40;;;;;;;0.05;0.00;;;;;;;21.22;52.07;99555.22;4425901;32;20302;-67
2021/12/30 07:55:08;;;;;;;1.45;0.10;;;;;;;21.06;52.25;99568.44;4424794;32;20045;-67
2021/12/30 07:57:34;;;;;;;0.10;0.10;;;;;;;21.12;52.14;99569.16;4423309;32;20521;-67
2021/12/30 08:00:00;;;;;;;0.47;0.00;;;;;;;21.18;52.07;99552.69;4424025;32;21097;-67
2021/12/30 08:02:26;;;;;;;0.37;0.20;;;;;;;21.22;51.80;99564.59;4424012;32;20083;-67
2021/12/30 08:04:51;;;;;;;1.83;0.15;;;;;;;21.54;51.08;99579.00;4423821;32;20038;-67
2021/12/30 08:07:21;;;;;;;0.22;0.10;;;;;;;21.36;51.58;99594.06;4420550;32;20479;-67
2021/12/30 08:09:47;;;;;;;0.55;0.10;;;;;;;21.01;52.43;99591.38;4422745;32;20127;-67
2021/12/30 08:12:13;;;;;;;2.33;0.30;;;;;;;21.56;51.26;99599.25;4422079;32;20063;-68
2021/12/30 08:14:38;;;;;;;0.90;0.10;;;;;;;21.81;50.20;99592.13;4424743;32;20077;-67
2021/12/30 08:17:04;;;;;;;1.08;0.10;;;;;;;21.76;50.17;99607.34;4421116;32;20073;-67
2021/12/30 08:19:30;;;;;;;1.75;0.20;;;;;;;21.81;50.20;99614.31;4421687;32;20366;-68
2021/12/30 08:21:56;;;;;;;1.95;0.20;;;;;;;21.49;51.03;99617.06;4422828;32;20241;-68
2021/12/30 08:24:22;;;;;;;1.80;0.20;;;;;;;21.87;50.00;99623.59;4424288;32;20034;-68
2021/12/30 08:26:48;;;;;;;2.28;0.10;;;;;;;21.79;50.14;99616.91;4419755;32;20042;-68
2021/12/30 08:29:15;;;;;;;1.23;0.20;;;;;;;21.86;50.02;99607.69;4423420;32;20091;-68
2021/12/30 08:31:41;;;;;;;0.43;0.22;;;;;;;21.94;49.73;99626.59;4422563;32;20170;-68
2021/12/30 08:34:07;;;;;;;0.93;0.30;;;;;;;22.29;48.87;99626.28;4421564;32;20399;-68
2021/12/30 08:36:34;;;;;;;2.33;0.20;;;;;;;22.18;49.23;99648.63;4423541;32;20096;-68
2021/12/30 08:39:00;;;;;;;1.48;0.20;;;;;;;22.52;48.41;99659.00;4421168;32;20108;-68
2021/12/30 08:41:26;;;;;;;1.87;0.20;;;;;;;22.52;48.39;99664.00;4419161;32;20391;-68
2021/12/30 08:43:52;;;;;;;0.30;0.20;;;;;;;21.84;49.65;99674.13;4423142;32;20063;-68
2021/12/30 08:46:19;;;;;;;3.20;0.20;;;;;;;22.30;48.72;99673.69;4421813;32;20069;-68
2021/12/30 08:48:44;;;;;;;0.98;0.20;;;;;;;22.37;48.54;99673.03;4421398;32;20160;-68
2021/12/30 08:51:10;;;;;;;0.85;0.22;;;;;;;22.64;47.68;99679.69;4422470;32;20034;-68
2021/12/30 08:53:40;;;;;;;3.22;0.60;;;;;;;22.99;46.90;99685.84;4419750;32;20067;-68
2021/12/30 08:56:08;;;;;;;1.65;0.37;;;;;;;23.18;46.66;99703.75;4420812;32;20098;-68
2021/12/30 08:58:35;;;;;;;20.65;13.82;;;;;;;23.15;46.57;99709.78;4420617;32;20030;-68
2021/12/30 09:01:01;;;;;;;1.05;0.32;;;;;;;23.46;46.14;99714.69;4420386;32;20033;-68
2021/12/30 09:03:26;;;;;;;1.75;0.52;;;;;;;23.54;45.86;99736.44;4420737;32;20073;-68
2021/12/30 09:05:52;;;;;;;2.70;0.60;;;;;;;23.72;45.31;99729.06;4422589;32;20038;-68
2021/12/30 09:08:18;;;;;;;2.22;0.50;;;;;;;23.84;44.92;99726.72;4421623;32;20108;-68
2021/12/30 09:10:46;;;;;;;1.37;0.57;;;;;;;23.92;44.82;99739.84;4423534;32;20333;-68
2021/12/30 09:13:14;;;;;;;2.17;1.10;;;;;;;24.40;43.77;99736.47;4422307;32;20456;-68
2021/12/30 09:15:39;;;;;;;5.50;0.60;;;;;;;24.50;43.53;99751.91;4422040;32;21196;-68
2021/12/30 09:18:06;;;;;;;1.42;0.20;;;;;;;24.39;43.37;99754.28;4420592;32;20038;-68
2021/12/30 09:20:33;;;;;;;2.22;0.40;;;;;;;24.06;44.01;99744.31;4422789;32;20045;-68
2021/12/30 09:23:03;;;;;;;2.75;0.35;;;;;;;24.29;43.75;99748.22;4417876;32;20041;-68
2021/12/30 09:25:30;;;;;;;1.08;0.32;;;;;;;24.22;43.79;99746.03;4419191;32;20461;-68
2021/12/30 09:27:57;;;;;;;4.22;0.77;;;;;;;24.63;43.14;99748.97;4419074;32;20452;-68
2021/12/30 09:30:25;;;;;;;1.37;0.40;;;;;;;24.83;42.83;99756.09;4421485;32;20341;-68
2021/12/30 09:32:53;;;;;;;5.22;1.00;;;;;;;25.07;42.39;99759.41;4420226;32;20056;-68
2021/12/30 09:35:19;;;;;;;3.85;1.17;;;;;;;25.37;41.87;99773.31;4424153;32;20099;-68
2021/12/30 09:37:46;;;;;;;1.45;0.50;;;;;;;25.28;41.61;99777.44;4421605;32;20089;-68
2021/12/30 09:40:14;;;;;;;1.67;0.30;;;;;;;25.14;41.98;99780.97;4418507;32;20168;-68
2021/12/30 09:42:44;;;;;;;2.03;0.50;;;;;;;24.89;42.38;99776.91;4422818;32;20037;-68
2021/12/30 09:45:11;;;;;;;1.20;0.40;;;;;;;25.17;41.97;99783.50;4425630;32;20418;-69
2021/12/30 09:47:56;;;;;;;4.40;0.85;;;;;;;25.18;41.93;99793.66;4423874;32;20564;-69
2021/12/30 09:50:25;;;;;;;1.35;0.40;;;;;;;25.02;42.17;99802.72;4423622;32;20025;-69
2021/12/30 09:52:51;;;;;;;2.03;0.50;;;;;;;25.32;42.00;99795.16;4425680;32;20057;-69
2021/12/30 09:55:17;;;;;;;2.60;0.60;;;;;;;25.49;41.33;99794.72;4423622;32;20067;-69
2021/12/30 09:57:43;;;;;;;3.00;0.70;;;;;;;25.37;41.31;99804.22;4424065;32;20425;-69
2021/12/30 10:00:12;;;;;;;1.42;0.40;;;;;;;25.41;41.64;99801.75;4424252;32;20081;-69
2021/12/30 10:02:40;;;;;;;3.62;0.65;;;;;;;25.75;40.73;99797.41;4424789;32;20463;-69
2021/12/30 10:05:10;;;;;;;1.90;0.85;;;;;;;26.22;40.31;99815.19;4425971;32;20026;-68
2021/12/30 10:07:39;;;;;;;4.45;0.98;;;;;;;26.07;40.45;99817.22;4420062;32;20161;-69
2021/12/30 10:10:30;;;;;;;2.80;0.98;;;;;;;25.74;40.89;99827.56;4421343;32;20391;-69
2021/12/30 10:12:57;;;;;;;1.80;0.77;;;;;;;26.16;40.28;99831.13;4424453;32;20082;-69
2021/12/30 10:15:26;;;;;;;1.85;0.65;;;;;;;25.64;41.23;99826.53;4425401;32;20201;-69
2021/12/30 10:17:55;;;;;;;2.95;0.80;;;;;;;25.28;41.35;99834.28;4424258;32;20105;-69
2021/12/30 10:20:27;;;;;;;2.22;0.60;;;;;;;25.72;41.09;99838.91;4424587;32;20068;-69
2021/12/30 10:22:56;;;;;;;3.05;0.70;;;;;;;25.83;40.85;99835.69;4424997;32;20473;-69
2021/12/30 10:25:41;;;;;;;1.52;0.50;;;;;;;25.69;41.20;99847.87;4424353;32;20042;-69
2021/12/30 10:28:30;;;;;;;2.22;0.52;;;;;;;25.84;40.55;99834.37;4422283;32;20560;-69
2021/12/30 10:31:00;;;;;;;2.60;0.50;;;;;;;26.09;39.88;99834.72;4421092;32;20134;-69
2021/12/30 10:33:29;;;;;;;5.55;0.77;;;;;;;26.03;40.86;99842.78;4422722;32;20066;-69
2021/12/30 10:35:56;;;;;;;2.30;0.60;;;;;;;25.84;41.01;99840.13;4423524;32;20076;-69
2021/12/30 10:38:22;;;;;;;2.08;0.65;;;;;;;25.60;41.50;99839.75;4425522;32;20037;-69
2021/12/30 10:40:52;;;;;;;1.17;0.40;;;;;;;25.71;40.75;99848.84;4421162;32;20152;-69
2021/12/30 10:51:37;;;;;;;2.67;0.82;;;;;;;25.82;41.65;99862.19;3981630;32;15033470;-70
2021/12/30 10:54:31;;;;;;;2.40;0.60;;;;;;;25.82;41.65;99862.19;4432387;32;20034;-71
2021/12/30 11:02:17;;;;;;;3.85;0.90;;;;;;;25.09;43.65;99874.78;3981583;32;15022534;-70
2021/12/30 11:09:59;;;;;;;5.43;0.93;;;;;;;25.04;44.11;99860.53;3979408;32;15025931;-70
2021/12/30 11:12:30;;;;;;;2.05;0.60;;;;;;;25.04;44.11;99860.53;4434845;32;20075;-70
2021/12/30 11:14:58;;;;;;;1.62;0.57;;;;;;;24.83;44.21;99854.75;4433502;32;20054;-70
2021/12/30 11:17:32;;;;;;;4.80;1.00;;;;;;;24.01;45.79;99848.66;4433664;32;20571;-70
2021/12/30 11:20:03;;;;;;;2.72;1.10;;;;;;;24.46;44.94;99845.62;4434297;32;20070;-70
2021/12/30 11:22:35;;;;;;;2.75;1.17;;;;;;;24.50;44.99;99858.34;4434316;32;20034;-70
2021/12/30 11:25:05;;;;;;;2.20;0.70;;;;;;;23.92;46.08;99848.28;4434980;32;20147;-70
2021/12/30 11:27:31;;;;;;;1.30;0.62;;;;;;;23.50;47.07;99867.34;4435242;32;20069;-70
2021/12/30 11:30:03;;;;;;;1.45;0.52;;;;;;;23.66;47.02;99851.94;4431520;32;20041;-71
2021/12/30 11:32:31;;;;;;;2.90;0.88;;;;;;;23.73;46.91;99865.63;4433301;32;20069;-71
2021/12/30 11:34:58;;;;;;;1.70;0.62;;;;;;;23.21;48.01;99862.59;4437549;32;20632;-71
2021/12/30 11:37:25;;;;;;;1.52;0.60;;;;;;;23.14;48.18;99866.13;4435019;32;20120;-71
2021/12/30 11:39:54;;;;;;;6.15;0.88;;;;;;;22.93;48.80;99865.16;4436115;32;20021;-71
2021/12/30 11:45:01;;;;;;;1.40;0.50;;;;;;;23.71;47.32;99865.41;3999602;31;15016438;-71
2021/12/30 11:52:54;;;;;;;2.72;0.30;;;;;;;23.77;47.24;99868.94;3969174;32;15023575;-71
2021/12/30 11:56:00;;;;;;;0.50;0.40;;;;;;;23.77;47.24;99868.94;4422820;32;20059;-72
2021/12/30 12:04:08;;;;;;;1.80;0.45;;;;;;;23.14;48.22;99846.78;3984339;32;15021816;-72
2021/12/30 12:09:33;;;;;;;0.68;0.30;;;;;;;23.32;48.19;99874.69;3982052;32;15022526;-72
2021/12/30 12:12:02;;;;;;;1.25;0.47;;;;;;;23.32;48.19;99874.69;4431433;32;20061;-71